createdAt,value
2022-08-24T00:02:24.547Z,54.00
2022-08-24T00:04:52.645Z,54.86
2022-08-24T00:07:27.300Z,55.36
2022-08-24T00:09:55.406Z,56.01
2022-08-24T00:12:21.974Z,55.69
2022-08-24T00:14:49.541Z,55.40
2022-08-24T00:17:17.330Z,54.16
2022-08-24T00:19:44.158Z,54.59
2022-08-24T00:22:10.690Z,54.48
2022-08-24T00:24:37.357Z,54.41
2022-08-24T00:27:05.573Z,54.42
2022-08-24T00:29:32.735Z,54.50
2022-08-24T00:31:59.230Z,55.04
2022-08-24T00:34:26.580Z,55.37
2022-08-24T00:36:53.576Z,56.64
2022-08-24T00:39:20.998Z,56.77
2022-08-24T00:41:49.506Z,56.70
2022-08-24T00:44:17.575Z,55.90
2022-08-24T00:46:46.580Z,55.50
2022-08-24T00:49:39.862Z,55.73
2022-08-24T00:52:15.197Z,55.10
2022-08-24T00:54:50.947Z,55.55
2022-08-24T00:57:25.064Z,55.91
2022-08-24T00:59:55.707Z,56.32
2022-08-24T01:02:26.545Z,57.10
2022-08-24T01:04:56.712Z,57.20
2022-08-24T01:07:25.380Z,57.37
2022-08-24T01:09:53.680Z,56.96
2022-08-24T01:12:21.115Z,56.55
2022-08-24T01:14:47.869Z,56.01
2022-08-24T01:17:37.852Z,55.90
2022-08-24T01:20:07.262Z,56.26
2022-08-24T01:22:50.335Z,55.97
2022-08-24T01:25:17.304Z,56.85
2022-08-24T01:27:45.117Z,57.33
2022-08-24T01:30:15.830Z,57.39
2022-08-24T01:32:54.638Z,56.41
2022-08-24T01:35:21.326Z,56.12
2022-08-24T01:37:48.883Z,56.03
2022-08-24T01:40:16.073Z,56.56
2022-08-24T01:42:51.593Z,57.64
2022-08-24T01:45:19.782Z,57.01
2022-08-24T01:47:46.315Z,56.87
2022-08-24T01:50:12.942Z,57.31
2022-08-24T01:53:03.800Z,57.83
2022-08-24T01:55:28.991Z,57.91
2022-08-24T01:57:55.610Z,57.99
2022-08-24T02:00:22.461Z,58.35
2022-08-24T02:02:48.910Z,58.05
2022-08-24T02:05:16.838Z,58.14
2022-08-24T02:07:43.262Z,58.45
2022-08-24T02:10:11.636Z,57.85
2022-08-24T02:12:39.966Z,57.53
2022-08-24T02:15:08.623Z,57.70
2022-08-24T02:17:36.717Z,58.24
2022-08-24T02:20:05.545Z,59.56
2022-08-24T02:22:32.151Z,59.92
2022-08-24T02:24:58.579Z,59.62
2022-08-24T02:27:24.984Z,59.27
2022-08-24T02:29:51.378Z,58.56
2022-08-24T02:32:17.850Z,58.36
2022-08-24T02:34:44.275Z,58.05
2022-08-24T02:37:10.888Z,58.43
2022-08-24T02:39:37.528Z,58.36
2022-08-24T02:42:04.109Z,58.76
2022-08-24T02:44:30.574Z,58.40
2022-08-24T02:46:57.396Z,58.28
2022-08-24T02:49:23.927Z,58.91
2022-08-24T02:51:50.557Z,58.17
2022-08-24T02:54:18.218Z,58.16
2022-08-24T02:56:46.643Z,58.82
2022-08-24T02:59:14.081Z,58.73
2022-08-24T03:01:41.122Z,59.18
2022-08-24T03:04:07.980Z,59.54
2022-08-24T03:06:34.801Z,60.18
2022-08-24T03:09:01.199Z,60.33
2022-08-24T03:11:28.526Z,59.64
2022-08-24T03:14:00.208Z,60.46
2022-08-24T03:16:28.098Z,60.42
2022-08-24T03:18:54.588Z,59.22
2022-08-24T03:21:21.103Z,59.33
2022-08-24T03:23:47.967Z,60.16
2022-08-24T03:26:14.952Z,60.85
2022-08-24T03:28:41.475Z,61.10
2022-08-24T03:31:11.329Z,61.08
2022-08-24T03:33:37.939Z,61.37
2022-08-24T03:36:04.478Z,61.71
2022-08-24T03:38:30.920Z,62.16
2022-08-24T03:40:57.547Z,62.37
2022-08-24T03:43:42.356Z,61.92
2022-08-24T03:46:09.170Z,61.15
2022-08-24T03:48:36.614Z,61.23
2022-08-24T03:51:03.264Z,60.71
2022-08-24T03:53:29.731Z,60.10
2022-08-24T03:55:56.263Z,60.74
2022-08-24T03:58:22.694Z,60.69
2022-08-24T04:00:50.412Z,60.13
2022-08-24T04:03:17.021Z,60.49
2022-08-24T04:05:43.519Z,61.27
2022-08-24T04:08:10.454Z,61.23
2022-08-24T04:10:38.293Z,60.85
2022-08-24T04:13:06.350Z,60.47
2022-08-24T04:15:32.860Z,60.49
2022-08-24T04:17:59.272Z,60.45
2022-08-24T04:20:26.132Z,60.41
2022-08-24T04:22:53.511Z,60.54
2022-08-24T04:25:24.635Z,60.30
2022-08-24T04:27:52.112Z,61.20
2022-08-24T04:30:18.736Z,61.67
2022-08-24T04:32:45.381Z,62.36
2022-08-24T04:35:12.602Z,62.18
2022-08-24T04:37:39.026Z,63.41
2022-08-24T04:40:08.052Z,62.65
2022-08-24T04:42:34.876Z,63.05
2022-08-24T04:45:01.503Z,63.66
2022-08-24T04:47:27.946Z,63.93
2022-08-24T04:49:54.478Z,64.49
2022-08-24T04:52:21.146Z,64.84
2022-08-24T04:54:47.659Z,64.07
2022-08-24T04:57:17.894Z,63.67
2022-08-24T04:59:44.711Z,63.27
2022-08-24T05:02:11.240Z,63.14
2022-08-24T05:04:37.675Z,62.72
2022-08-24T05:07:04.911Z,63.08
2022-08-24T05:09:31.782Z,63.20
2022-08-24T05:11:58.305Z,62.98
2022-08-24T05:14:28.649Z,62.75
2022-08-24T05:16:55.801Z,62.60
2022-08-24T05:19:23.547Z,62.46
2022-08-24T05:21:50.825Z,62.48
2022-08-24T05:24:17.454Z,62.22
2022-08-24T05:26:43.915Z,62.69
2022-08-24T05:29:10.742Z,62.71
2022-08-24T05:31:37.704Z,63.46
2022-08-24T05:34:04.842Z,63.12
2022-08-24T05:36:38.229Z,63.60
2022-08-24T05:39:12.415Z,63.25
2022-08-24T05:41:44.314Z,63.25
2022-08-24T05:44:15.631Z,63.46
2022-08-24T05:46:43.152Z,63.31
2022-08-24T05:49:10.299Z,63.38
2022-08-24T05:51:36.830Z,63.93
2022-08-24T05:54:05.029Z,64.05
2022-08-24T05:56:32.178Z,64.35
2022-08-24T05:58:59.227Z,64.44
2022-08-24T06:01:27.141Z,64.58
2022-08-24T06:03:55.455Z,64.10
2022-08-24T06:06:23.153Z,63.80
2022-08-24T06:08:52.692Z,63.79
2022-08-24T06:11:30.265Z,64.18
2022-08-24T06:14:00.548Z,64.22
2022-08-24T06:16:27.204Z,64.55
2022-08-24T06:18:54.100Z,64.46
2022-08-24T06:21:25.746Z,64.74
2022-08-24T06:23:55.083Z,64.88
2022-08-24T06:26:40.463Z,65.44
2022-08-24T06:29:10.622Z,65.61
2022-08-24T06:31:39.885Z,65.16
2022-08-24T06:34:14.162Z,65.12
2022-08-24T06:36:41.436Z,64.40
2022-08-24T06:39:09.965Z,64.77
2022-08-24T06:41:37.812Z,63.91
2022-08-24T06:44:05.049Z,64.39
2022-08-24T06:46:33.043Z,63.65
2022-08-24T06:48:59.703Z,63.77
2022-08-24T06:51:26.114Z,63.70
2022-08-24T06:53:56.125Z,63.71
2022-08-24T06:56:26.574Z,63.45
2022-08-24T06:58:52.998Z,62.37
2022-08-24T07:01:25.944Z,62.33
2022-08-24T07:03:53.259Z,62.12
2022-08-24T07:06:20.318Z,62.09
2022-08-24T07:08:46.770Z,61.83
2022-08-24T07:11:15.509Z,61.50
2022-08-24T07:13:42.534Z,61.37
2022-08-24T07:16:10.189Z,61.31
2022-08-24T07:18:37.380Z,60.80
2022-08-24T07:21:07.297Z,61.67
2022-08-24T07:23:42.295Z,59.91
2022-08-24T07:26:20.868Z,58.64
2022-08-24T07:29:06.711Z,57.93
2022-08-24T07:31:35.693Z,57.60
2022-08-24T07:34:03.968Z,57.01
2022-08-24T07:36:30.512Z,57.25
2022-08-24T07:38:57.272Z,57.33
2022-08-24T07:44:15.605Z,57.58
2022-08-24T07:46:43.085Z,56.22
2022-08-24T07:49:28.027Z,55.65
2022-08-24T07:51:57.896Z,56.44
2022-08-24T07:54:24.347Z,57.06
2022-08-24T07:56:50.770Z,56.50
2022-08-24T07:59:17.630Z,56.59
2022-08-24T08:01:44.687Z,55.76
2022-08-24T08:04:11.251Z,55.64
2022-08-24T08:06:37.787Z,54.91
2022-08-24T08:09:05.332Z,54.50
2022-08-24T08:11:32.597Z,52.92
2022-08-24T08:13:59.341Z,53.28
2022-08-24T08:16:26.345Z,53.10
2022-08-24T08:19:09.398Z,53.60
2022-08-24T08:22:07.208Z,53.30
2022-08-24T08:24:34.888Z,54.24
2022-08-24T08:27:01.825Z,53.88
2022-08-24T08:29:31.428Z,52.83
2022-08-24T08:31:57.971Z,52.89
2022-08-24T08:34:24.515Z,52.83
2022-08-24T08:36:51.481Z,53.33
2022-08-24T08:39:19.966Z,52.87
2022-08-24T08:42:28.030Z,52.74
2022-08-24T08:45:31.886Z,51.79
2022-08-24T08:48:36.522Z,52.05
2022-08-24T08:51:21.881Z,52.12
2022-08-24T08:54:12.929Z,51.95
2022-08-24T08:57:05.158Z,51.49
2022-08-24T08:59:54.345Z,50.26
2022-08-24T09:03:09.206Z,49.64
2022-08-24T09:08:57.693Z,48.98
2022-08-24T09:11:41.370Z,48.39
2022-08-24T09:14:31.950Z,47.81
2022-08-24T09:17:04.327Z,47.25
2022-08-24T09:20:09.611Z,47.42
2022-08-24T09:22:40.888Z,46.02
2022-08-24T09:25:26.629Z,45.98
2022-08-24T09:28:00.285Z,44.86
2022-08-24T09:30:41.411Z,44.32
2022-08-24T09:33:21.367Z,43.98
2022-08-24T09:35:51.427Z,43.74
2022-08-24T09:38:41.203Z,43.10
2022-08-24T09:41:18.910Z,43.35
2022-08-24T09:44:20.106Z,42.32
2022-08-24T09:47:17.826Z,42.26
2022-08-24T09:50:11.726Z,41.77
2022-08-24T09:53:16.161Z,41.67
2022-08-24T09:56:11.760Z,41.09
2022-08-24T09:58:58.977Z,41.15
2022-08-24T10:01:39.902Z,41.34
2022-08-24T10:04:32.397Z,40.21
2022-08-24T10:07:18.255Z,40.37
2022-08-24T10:09:59.469Z,39.40
2022-08-24T10:12:56.334Z,39.53
2022-08-24T10:15:37.800Z,38.70
2022-08-24T10:18:35.147Z,38.06
2022-08-24T10:21:17.147Z,37.69
2022-08-24T10:24:02.327Z,36.26
2022-08-24T10:26:45.628Z,37.55
2022-08-24T10:29:51.265Z,36.70
2022-08-24T10:32:41.034Z,36.61
2022-08-24T10:35:18.180Z,36.42
2022-08-24T10:38:24.436Z,35.93
2022-08-24T10:41:15.865Z,35.85
2022-08-24T10:44:11.158Z,34.98
2022-08-24T10:46:53.521Z,35.32
2022-08-24T10:49:35.137Z,34.81
2022-08-24T10:52:01.514Z,34.52
2022-08-24T10:54:28.277Z,34.20
2022-08-24T10:57:10.298Z,34.05
2022-08-24T11:00:22.605Z,33.85
2022-08-24T11:02:50.317Z,33.81
2022-08-24T11:05:29.974Z,33.07
2022-08-24T11:08:02.694Z,32.99
2022-08-24T11:10:35.193Z,32.70
2022-08-24T11:13:21.755Z,32.31
2022-08-24T11:16:02.329Z,32.14
2022-08-24T11:18:47.790Z,31.66
2022-08-24T11:21:33.753Z,30.70
2022-08-24T11:24:32.496Z,31.66
2022-08-24T11:27:24.254Z,31.39
2022-08-24T11:29:54.635Z,31.54
2022-08-24T11:32:37.173Z,30.94
2022-08-24T11:35:09.446Z,30.99
2022-08-24T11:37:38.620Z,30.77
2022-08-24T11:40:08.625Z,30.16
2022-08-24T11:43:05.733Z,30.73
2022-08-24T11:45:42.557Z,31.31
2022-08-24T11:48:27.236Z,30.52
2022-08-24T11:51:14.990Z,30.95
2022-08-24T11:54:09.401Z,29.95
2022-08-24T11:56:48.814Z,28.95
2022-08-24T11:59:21.382Z,29.24
2022-08-24T12:01:53.788Z,29.89
2022-08-24T12:04:49.202Z,29.63
2022-08-24T12:07:26.539Z,29.50
2022-08-24T12:09:55.855Z,28.71
2022-08-24T12:12:35.649Z,29.63
2022-08-24T12:15:12.728Z,29.95
2022-08-24T12:17:42.350Z,30.50
2022-08-24T12:20:31.848Z,30.70
2022-08-24T12:23:03.201Z,30.20
2022-08-24T12:25:51.734Z,30.38
2022-08-24T12:28:29.147Z,30.51
2022-08-24T12:30:59.749Z,30.26
2022-08-24T12:33:31.876Z,29.49
2022-08-24T12:36:03.058Z,29.08
2022-08-24T12:38:42.022Z,28.04
2022-08-24T12:41:24.189Z,28.29
2022-08-24T12:44:01.528Z,27.79
2022-08-24T12:46:28.169Z,27.79
2022-08-24T12:49:23.024Z,28.01
2022-08-24T12:52:04.695Z,28.33
2022-08-24T12:54:51.930Z,27.76
2022-08-24T12:57:35.606Z,28.07
2022-08-24T13:00:10.681Z,28.57
2022-08-24T13:02:44.093Z,28.14
2022-08-24T13:05:19.012Z,27.01
2022-08-24T13:07:49.029Z,27.35
2022-08-24T13:10:24.734Z,27.35
2022-08-24T13:13:05.096Z,27.23
2022-08-24T13:15:31.449Z,26.42
2022-08-24T13:18:17.778Z,26.11
2022-08-24T13:20:44.199Z,26.00
2022-08-24T13:23:19.132Z,27.18
2022-08-24T13:25:49.760Z,26.28
2022-08-24T13:28:25.420Z,27.00
2022-08-24T13:31:23.129Z,26.59
2022-08-24T13:34:09.067Z,26.73
2022-08-24T13:36:57.585Z,26.38
2022-08-24T13:39:54.878Z,26.25
2022-08-24T13:42:27.702Z,25.22
2022-08-24T13:45:09.527Z,24.23
2022-08-24T13:48:06.878Z,26.14
2022-08-24T13:50:59.140Z,25.32
2022-08-24T13:53:52.627Z,25.80
2022-08-24T13:56:33.300Z,25.41
2022-08-24T13:59:34.835Z,25.52
2022-08-24T14:02:16.455Z,25.71
2022-08-24T14:05:05.887Z,24.99
2022-08-24T14:08:07.710Z,25.90
2022-08-24T14:11:07.876Z,25.61
2022-08-24T14:13:47.810Z,25.01
2022-08-24T14:16:57.028Z,24.66
2022-08-24T14:19:32.754Z,24.57
2022-08-24T14:21:59.295Z,24.34
2022-08-24T14:24:39.588Z,24.36
2022-08-24T14:27:35.230Z,24.50
2022-08-24T14:30:23.382Z,24.44
2022-08-24T14:33:03.384Z,24.22
2022-08-24T14:35:44.743Z,24.22
2022-08-24T14:38:20.206Z,23.88
2022-08-24T14:40:52.725Z,23.83
2022-08-24T14:44:03.614Z,22.93
2022-08-24T14:47:02.394Z,24.22
2022-08-24T14:49:35.665Z,24.17
2022-08-24T14:52:42.265Z,24.21
2022-08-24T14:55:18.580Z,24.35
2022-08-24T14:57:52.008Z,24.34
2022-08-24T15:00:20.416Z,24.95
2022-08-24T15:03:11.937Z,23.96
2022-08-24T15:06:25.141Z,24.49
2022-08-24T15:08:47.571Z,24.78
2022-08-24T15:11:24.605Z,23.67
2022-08-24T15:13:56.615Z,24.05
2022-08-24T15:16:33.801Z,23.25
2022-08-24T15:19:19.565Z,23.53
2022-08-24T15:22:04.815Z,23.26
2022-08-24T15:24:57.170Z,24.02
2022-08-24T15:27:42.381Z,24.51
2022-08-24T15:30:29.012Z,23.06
2022-08-24T15:33:19.320Z,24.08
2022-08-24T15:36:03.253Z,23.98
2022-08-24T15:38:29.561Z,24.09
2022-08-24T15:41:19.954Z,22.85
2022-08-24T15:43:52.222Z,23.08
2022-08-24T15:46:27.775Z,22.51
2022-08-24T15:49:04.406Z,22.93
2022-08-24T15:51:43.179Z,23.33
2022-08-24T15:54:30.447Z,23.55
2022-08-24T15:57:09.359Z,23.90
2022-08-24T15:59:41.755Z,23.59
2022-08-24T16:02:26.868Z,23.88
2022-08-24T16:05:24.191Z,23.51
2022-08-24T16:08:03.307Z,22.33
2022-08-24T16:10:51.872Z,23.94
2022-08-24T16:13:18.222Z,23.92
2022-08-24T16:15:51.317Z,23.83
2022-08-24T16:18:20.345Z,23.29
2022-08-24T16:20:48.928Z,24.03
2022-08-24T16:23:28.228Z,23.93
2022-08-24T16:26:53.642Z,22.93
2022-08-24T16:29:38.257Z,23.21
2022-08-24T16:32:33.590Z,23.83
2022-08-24T16:35:13.319Z,23.12
2022-08-24T16:37:40.137Z,24.25
2022-08-24T16:40:08.935Z,24.29
2022-08-24T16:42:36.492Z,24.45
2022-08-24T16:45:05.498Z,23.93
2022-08-24T16:47:32.026Z,24.27
2022-08-24T16:49:58.889Z,24.16
2022-08-24T16:52:25.397Z,24.67
2022-08-24T16:54:51.851Z,24.98
2022-08-24T16:57:23.195Z,24.81
2022-08-24T16:59:52.024Z,24.52
2022-08-24T17:02:20.436Z,24.65
2022-08-24T17:04:46.944Z,25.28
2022-08-24T17:07:22.148Z,24.87
2022-08-24T17:09:48.884Z,25.76
2022-08-24T17:12:15.573Z,25.50
2022-08-24T17:14:42.776Z,25.34
2022-08-24T17:17:13.268Z,25.83
2022-08-24T17:19:40.469Z,25.80
2022-08-24T17:22:14.336Z,25.54
2022-08-24T17:24:43.212Z,25.41
2022-08-24T17:27:09.657Z,25.46
2022-08-24T17:29:36.268Z,25.84
2022-08-24T17:32:02.946Z,25.14
2022-08-24T17:34:29.439Z,25.78
2022-08-24T17:36:57.065Z,25.98
2022-08-24T17:39:24.128Z,26.10
2022-08-24T17:41:52.320Z,25.60
2022-08-24T17:44:24.877Z,26.34
2022-08-24T17:46:54.040Z,26.49
2022-08-24T17:49:21.109Z,26.61
2022-08-24T17:51:50.659Z,26.81
2022-08-24T17:54:18.008Z,26.22
2022-08-24T17:56:46.563Z,26.21
2022-08-24T17:59:22.856Z,25.53
2022-08-24T18:01:55.402Z,25.82
2022-08-24T18:04:26.029Z,26.12
2022-08-24T18:06:52.754Z,25.88
2022-08-24T18:09:36.648Z,26.13
2022-08-24T18:12:05.863Z,26.24
2022-08-24T18:14:34.460Z,26.75
2022-08-24T18:17:08.569Z,26.53
2022-08-24T18:19:35.812Z,26.74
2022-08-24T18:22:04.337Z,27.40
2022-08-24T18:24:32.455Z,28.06
2022-08-24T18:27:10.156Z,28.26
2022-08-24T18:29:39.658Z,28.90
2022-08-24T18:32:06.812Z,28.94
2022-08-24T18:34:34.208Z,28.60
2022-08-24T18:37:01.063Z,28.54
2022-08-24T18:39:27.687Z,28.13
2022-08-24T18:41:55.583Z,28.75
2022-08-24T18:44:26.141Z,28.74
2022-08-24T18:46:54.753Z,30.03
2022-08-24T18:49:21.806Z,29.27
2022-08-24T18:51:49.147Z,29.50
2022-08-24T18:54:20.567Z,29.98
2022-08-24T18:56:47.224Z,30.30
2022-08-24T18:59:15.779Z,30.67
2022-08-24T19:02:02.177Z,30.07
2022-08-24T19:04:32.601Z,29.89
2022-08-24T19:06:59.993Z,29.35
2022-08-24T19:09:29.639Z,29.40
2022-08-24T19:11:58.624Z,29.77
2022-08-24T19:14:25.123Z,30.20
2022-08-24T19:16:52.471Z,31.22
2022-08-24T19:19:19.814Z,31.15
2022-08-24T19:21:46.326Z,32.03
2022-08-24T19:24:13.183Z,32.17
2022-08-24T19:26:39.968Z,32.07
2022-08-24T19:29:06.422Z,32.37
2022-08-24T19:31:33.864Z,32.54
2022-08-24T19:34:03.650Z,33.77
2022-08-24T19:36:30.619Z,33.67
2022-08-24T19:38:57.136Z,33.41
2022-08-24T19:41:24.103Z,33.61
2022-08-24T19:44:27.800Z,33.43
2022-08-24T19:46:55.491Z,34.08
2022-08-24T19:49:22.117Z,34.04
2022-08-24T19:51:48.642Z,34.36
2022-08-24T19:54:15.119Z,34.89
2022-08-24T19:56:41.767Z,35.10
2022-08-24T19:59:20.669Z,35.49
2022-08-24T20:01:47.183Z,35.38
2022-08-24T20:04:13.681Z,35.71
2022-08-24T20:06:41.085Z,34.87
2022-08-24T20:09:08.697Z,35.47
2022-08-24T20:11:35.938Z,35.42
2022-08-24T20:14:02.769Z,35.89
2022-08-24T20:16:35.223Z,35.83
2022-08-24T20:19:03.062Z,36.15
2022-08-24T20:21:30.249Z,36.59
2022-08-24T20:24:00.462Z,36.73
2022-08-24T20:26:28.933Z,37.18
2022-08-24T20:28:58.764Z,36.90
2022-08-24T20:31:28.431Z,37.18
2022-08-24T20:33:57.172Z,36.98
2022-08-24T20:36:36.199Z,37.32
2022-08-24T20:39:05.962Z,37.30
2022-08-24T20:41:32.621Z,37.60
2022-08-24T20:43:59.495Z,37.70
2022-08-24T20:46:26.992Z,37.52
2022-08-24T20:48:55.881Z,37.79
2022-08-24T20:51:24.104Z,37.97
2022-08-24T20:53:50.537Z,38.16
2022-08-24T20:56:28.709Z,38.49
2022-08-24T20:58:58.234Z,38.07
2022-08-24T21:01:24.881Z,38.48
2022-08-24T21:03:51.664Z,38.58
2022-08-24T21:06:19.511Z,38.71
2022-08-24T21:08:48.275Z,39.09
2022-08-24T21:11:16.053Z,38.64
2022-08-24T21:13:42.557Z,39.17
2022-08-24T21:16:14.907Z,39.02
2022-08-24T21:18:44.781Z,38.77
2022-08-24T21:21:11.225Z,38.73
2022-08-24T21:23:37.689Z,38.87
2022-08-24T21:26:08.030Z,39.12
2022-08-24T21:28:36.290Z,39.76
2022-08-24T21:31:06.138Z,39.82
2022-08-24T21:33:51.344Z,38.72
2022-08-24T21:36:18.018Z,39.10
2022-08-24T21:38:45.406Z,39.77
2022-08-24T21:41:12.193Z,39.84
2022-08-24T21:43:38.596Z,39.52
2022-08-24T21:46:05.843Z,40.47
2022-08-24T21:48:32.342Z,40.45
2022-08-24T21:50:58.787Z,40.99
2022-08-24T21:53:28.465Z,41.17
2022-08-24T21:55:55.961Z,41.28
2022-08-24T21:58:24.009Z,41.16
2022-08-24T22:00:51.426Z,41.32
2022-08-24T22:03:17.979Z,41.96
2022-08-24T22:05:44.428Z,41.93
2022-08-24T22:08:11.313Z,42.12
2022-08-24T22:10:38.124Z,42.54
2022-08-24T22:13:04.884Z,42.37
2022-08-24T22:15:34.279Z,42.78
2022-08-24T22:18:01.293Z,42.39
2022-08-24T22:20:27.884Z,42.86
2022-08-24T22:22:54.309Z,43.10
2022-08-24T22:25:20.803Z,42.91
2022-08-24T22:27:47.618Z,43.28
2022-08-24T22:30:17.382Z,43.30
2022-08-24T22:32:45.353Z,42.87
2022-08-24T22:35:12.543Z,43.55
2022-08-24T22:37:39.099Z,44.21
2022-08-24T22:40:06.705Z,44.58
2022-08-24T22:42:39.297Z,44.69
2022-08-24T22:45:07.031Z,44.78
2022-08-24T22:47:33.705Z,44.86
2022-08-24T22:50:00.128Z,44.55
2022-08-24T22:52:26.677Z,44.63
2022-08-24T22:54:58.415Z,44.47
2022-08-24T22:57:25.562Z,44.61
2022-08-24T22:59:53.221Z,44.27
2022-08-24T23:02:19.789Z,44.33
2022-08-24T23:04:49.706Z,43.86
2022-08-24T23:07:16.582Z,43.76
2022-08-24T23:09:45.417Z,44.02
2022-08-24T23:12:18.230Z,43.84
2022-08-24T23:14:44.893Z,43.78
2022-08-24T23:17:11.611Z,44.74
2022-08-24T23:19:56.600Z,44.49
2022-08-24T23:22:23.057Z,44.58
2022-08-24T23:24:49.527Z,43.95
2022-08-24T23:27:17.175Z,44.01
2022-08-24T23:29:45.861Z,43.79
2022-08-24T23:32:12.930Z,44.08
2022-08-24T23:34:45.046Z,43.63
2022-08-24T23:37:11.487Z,42.29
2022-08-24T23:39:38.077Z,42.30
2022-08-24T23:42:05.946Z,42.44
2022-08-24T23:44:33.589Z,41.45
2022-08-24T23:47:00.416Z,41.09
2022-08-24T23:49:28.311Z,40.59
2022-08-24T23:51:54.760Z,40.85
2022-08-24T23:54:22.057Z,40.38
2022-08-24T23:56:49.262Z,40.29
2022-08-24T23:59:19.355Z,39.08
